createdAt,value
2018-02-24T00:00:23.493Z,-5.90
2018-02-24T00:02:51.792Z,-5.90
2018-02-24T00:05:20.038Z,-5.80
2018-02-24T00:07:48.286Z,-6.00
2018-02-24T00:10:17.367Z,-6.20
2018-02-24T00:12:46.413Z,-6.00
2018-02-24T00:15:14.643Z,-6.00
2018-02-24T00:17:43.711Z,-6.20
2018-02-24T00:20:11.981Z,-6.20
2018-02-24T00:22:44.858Z,-6.10
2018-02-24T00:25:13.151Z,-6.20
2018-02-24T00:27:41.425Z,-6.30
2018-02-24T00:30:09.839Z,-6.40
2018-02-24T00:32:38.116Z,-6.40
2018-02-24T00:35:06.381Z,-6.50
2018-02-24T00:37:35.431Z,-6.30
2018-02-24T00:40:03.691Z,-6.30
2018-02-24T00:42:31.954Z,-6.50
2018-02-24T00:45:00.264Z,-6.60
2018-02-24T00:47:28.505Z,-6.50
2018-02-24T00:49:56.778Z,-6.40
2018-02-24T00:52:25.101Z,-6.50
2018-02-24T00:54:53.365Z,-6.50
2018-02-24T00:57:21.625Z,-6.50
2018-02-24T00:59:49.920Z,-6.50
2018-02-24T01:02:18.177Z,-6.60
2018-02-24T01:04:46.427Z,-6.60
2018-02-24T01:07:14.725Z,-6.60
2018-02-24T01:09:42.974Z,-6.80
2018-02-24T01:12:11.227Z,-6.80
2018-02-24T01:14:40.284Z,-6.80
2018-02-24T01:17:08.535Z,-6.80
2018-02-24T01:19:36.804Z,-6.70
2018-02-24T01:22:05.105Z,-6.80
2018-02-24T01:24:33.373Z,-6.70
2018-02-24T01:27:01.636Z,-6.70
2018-02-24T01:29:29.926Z,-6.90
2018-02-24T01:31:58.191Z,-6.90
2018-02-24T01:34:26.442Z,-6.90
2018-02-24T01:36:54.826Z,-6.80
2018-02-24T01:39:23.082Z,-7.00
2018-02-24T01:41:52.172Z,-6.20
2018-02-24T01:44:20.457Z,-6.30
2018-02-24T01:46:49.473Z,-6.20
2018-02-24T01:49:17.739Z,-6.30
2018-02-24T01:51:46.034Z,-5.90
2018-02-24T01:54:14.268Z,-5.50
2018-02-24T01:56:42.515Z,-6.20
2018-02-24T01:59:10.823Z,-6.50
2018-02-24T02:01:39.834Z,-6.70
2018-02-24T02:04:08.126Z,-6.80
2018-02-24T02:06:36.420Z,-6.60
2018-02-24T02:09:04.676Z,-6.50
2018-02-24T02:11:32.921Z,-6.50
2018-02-24T02:14:01.994Z,-6.60
2018-02-24T02:16:30.238Z,-6.60
2018-02-24T02:18:58.487Z,-6.70
2018-02-24T02:21:26.807Z,-6.80
2018-02-24T02:23:55.049Z,-6.90
2018-02-24T02:26:23.347Z,-7.10
2018-02-24T02:28:51.655Z,-7.00
2018-02-24T02:31:19.926Z,-7.00
2018-02-24T02:33:48.185Z,-7.00
2018-02-24T02:36:16.497Z,-7.00
2018-02-24T02:38:44.769Z,-7.20
2018-02-24T02:41:13.030Z,-7.10
2018-02-24T02:43:41.342Z,-7.10
2018-02-24T02:46:09.605Z,-7.30
2018-02-24T02:48:37.870Z,-7.30
2018-02-24T02:51:06.931Z,-7.20
2018-02-24T02:53:35.216Z,-7.20
2018-02-24T02:56:03.512Z,-7.20
2018-02-24T02:58:31.804Z,-6.90
2018-02-24T03:01:00.075Z,-6.80
2018-02-24T03:03:29.095Z,-6.70
2018-02-24T03:05:57.392Z,-6.70
2018-02-24T03:08:25.652Z,-6.80
2018-02-24T03:10:53.916Z,-6.90
2018-02-24T03:13:22.289Z,-6.80
2018-02-24T03:15:50.627Z,-6.90
2018-02-24T03:18:18.897Z,-6.80
2018-02-24T03:20:48.708Z,-7.00
2018-02-24T03:23:16.995Z,-7.00
2018-02-24T03:25:45.260Z,-6.80
2018-02-24T03:28:13.570Z,-6.90
2018-02-24T03:30:41.852Z,-6.90
2018-02-24T03:33:10.880Z,-6.80
2018-02-24T03:35:39.222Z,-6.80
2018-02-24T03:38:08.250Z,-6.70
2018-02-24T03:40:36.502Z,-6.70
2018-02-24T03:43:04.812Z,-6.70
2018-02-24T03:45:35.527Z,-6.70
2018-02-24T03:48:03.778Z,-6.70
2018-02-24T03:50:32.904Z,-6.60
2018-02-24T03:53:01.160Z,-6.60
2018-02-24T03:55:29.426Z,-6.60
2018-02-24T03:57:57.717Z,-6.50
2018-02-24T04:00:25.981Z,-6.70
2018-02-24T04:02:54.230Z,-6.70
2018-02-24T04:05:22.501Z,-6.70
2018-02-24T04:07:50.744Z,-6.80
2018-02-24T04:10:19.002Z,-6.80
2018-02-24T04:12:47.296Z,-6.60
2018-02-24T04:15:15.582Z,-6.70
2018-02-24T04:17:43.828Z,-6.70
2018-02-24T04:20:12.105Z,-6.60
2018-02-24T04:22:40.362Z,-6.60
2018-02-24T04:25:08.622Z,-6.60
2018-02-24T04:27:37.687Z,-6.50
2018-02-24T04:30:05.938Z,-6.50
2018-02-24T04:32:34.209Z,-6.60
2018-02-24T04:35:02.537Z,-6.60
2018-02-24T04:37:31.576Z,-6.50
2018-02-24T04:39:59.840Z,-6.60
2018-02-24T04:42:28.133Z,-6.50
2018-02-24T04:44:56.445Z,-6.50
2018-02-24T04:47:24.738Z,-6.40
2018-02-24T04:49:53.813Z,-6.40
2018-02-24T04:52:22.083Z,-6.40
2018-02-24T04:54:50.388Z,-6.30
2018-02-24T04:57:18.674Z,-6.20
2018-02-24T04:59:46.933Z,-6.30
2018-02-24T05:02:15.945Z,-6.30
2018-02-24T05:04:44.244Z,-6.30
2018-02-24T05:07:12.518Z,-6.20
2018-02-24T05:09:40.767Z,-6.20
2018-02-24T05:12:09.858Z,-6.20
2018-02-24T05:14:38.888Z,-6.20
2018-02-24T05:17:07.985Z,-6.20
2018-02-24T05:19:36.286Z,-6.20
2018-02-24T05:22:04.538Z,-6.10
2018-02-24T05:24:32.790Z,-6.20
2018-02-24T05:27:01.079Z,-6.10
2018-02-24T05:29:29.323Z,-6.10
2018-02-24T05:31:58.338Z,-6.20
2018-02-24T05:34:26.630Z,-6.20
2018-02-24T05:36:54.896Z,-6.20
2018-02-24T05:39:23.181Z,-6.20
2018-02-24T05:41:51.477Z,-6.20
2018-02-24T05:44:19.739Z,-6.10
2018-02-24T05:46:47.996Z,-6.10
2018-02-24T05:49:17.086Z,-6.20
2018-02-24T05:51:45.335Z,-6.20
2018-02-24T05:54:14.379Z,-6.20
2018-02-24T05:56:42.692Z,-6.20
2018-02-24T05:59:10.983Z,-6.10
2018-02-24T06:01:40.004Z,-6.10
2018-02-24T06:04:08.343Z,-6.10
2018-02-24T06:06:36.593Z,-6.00
2018-02-24T06:09:04.858Z,-6.00
2018-02-24T06:11:33.180Z,-6.00
2018-02-24T06:14:01.455Z,-6.00
2018-02-24T06:16:30.469Z,-6.00
2018-02-24T06:18:58.798Z,-6.10
2018-02-24T06:21:27.087Z,-5.90
2018-02-24T06:23:55.410Z,-5.90
2018-02-24T06:26:23.742Z,-5.90
2018-02-24T06:28:52.010Z,-5.90
2018-02-24T06:31:20.304Z,-5.90
2018-02-24T06:33:48.612Z,-5.80
2018-02-24T06:36:16.898Z,-5.80
2018-02-24T06:38:45.153Z,-5.90
2018-02-24T06:41:13.465Z,-5.80
2018-02-24T06:43:41.746Z,-5.70
2018-02-24T06:46:10.077Z,-5.80
2018-02-24T06:48:38.573Z,-5.60
2018-02-24T06:51:06.888Z,-5.60
2018-02-24T06:53:35.171Z,-5.60
2018-02-24T06:56:03.517Z,-5.60
2018-02-24T06:58:31.786Z,-5.70
2018-02-24T07:01:00.091Z,-5.60
2018-02-24T07:03:28.455Z,-5.60
2018-02-24T07:05:56.735Z,-5.60
2018-02-24T07:08:25.040Z,-5.50
2018-02-24T07:10:53.631Z,-5.40
2018-02-24T07:13:21.902Z,-5.20
2018-02-24T07:15:50.186Z,-5.20
2018-02-24T07:18:18.675Z,-5.20
2018-02-24T07:20:47.985Z,-5.00
2018-02-24T07:23:17.023Z,-5.10
2018-02-24T07:25:45.628Z,-5.10
2018-02-24T07:28:13.973Z,-5.00
2018-02-24T07:30:42.244Z,-5.00
2018-02-24T07:33:10.550Z,-5.00
2018-02-24T07:35:38.822Z,-4.90
2018-02-24T07:38:07.098Z,-4.80
2018-02-24T07:40:36.224Z,-4.80
2018-02-24T07:43:05.269Z,-4.70
2018-02-24T07:45:34.385Z,-4.70
2018-02-24T07:48:02.882Z,-4.80
2018-02-24T07:50:31.143Z,-4.60
2018-02-24T07:52:59.398Z,-4.60
2018-02-24T07:55:27.723Z,-4.50
2018-02-24T07:57:56.765Z,-4.20
2018-02-24T08:00:25.040Z,-4.20
2018-02-24T08:02:53.362Z,-4.00
2018-02-24T08:05:21.636Z,-4.00
2018-02-24T08:07:49.890Z,-3.90
2018-02-24T08:10:18.227Z,-3.60
2018-02-24T08:12:46.526Z,-4.00
2018-02-24T08:15:14.820Z,-3.60
2018-02-24T08:17:43.208Z,-3.50
2018-02-24T08:20:11.485Z,-3.70
2018-02-24T08:22:39.740Z,-3.20
2018-02-24T08:25:08.054Z,-2.70
2018-02-24T08:27:36.342Z,-2.80
2018-02-24T08:30:04.702Z,-3.20
2018-02-24T08:32:33.038Z,-2.60
2018-02-24T08:35:01.461Z,-2.40
2018-02-24T08:37:29.805Z,-2.10
2018-02-24T08:39:58.149Z,-2.00
2018-02-24T08:42:26.443Z,-2.80
2018-02-24T08:44:54.754Z,-2.90
2018-02-24T08:47:23.062Z,-2.40
2018-02-24T08:49:52.090Z,-2.00
2018-02-24T08:52:20.517Z,-2.00
2018-02-24T08:54:48.904Z,-2.00
2018-02-24T08:57:17.196Z,-1.80
2018-02-24T08:59:45.884Z,-1.30
2018-02-24T09:02:14.209Z,-1.40
2018-02-24T09:04:42.460Z,-1.60
2018-02-24T09:07:10.774Z,-1.20
2018-02-24T09:09:39.030Z,-1.40
2018-02-24T09:12:07.367Z,-1.20
2018-02-24T09:14:35.801Z,-1.90
2018-02-24T09:17:05.597Z,-1.20
2018-02-24T09:19:34.730Z,-1.00
2018-02-24T09:22:03.103Z,-1.10
2018-02-24T09:24:31.346Z,-0.90
2018-02-24T09:26:59.712Z,-1.10
2018-02-24T09:29:27.987Z,-0.50
2018-02-24T09:31:56.271Z,-0.70
2018-02-24T09:34:24.623Z,-0.70
2018-02-24T09:36:52.948Z,-1.10
2018-02-24T09:39:21.355Z,-1.50
2018-02-24T09:41:50.413Z,-0.80
2018-02-24T09:44:18.689Z,-0.80
2018-02-24T09:46:47.122Z,-1.00
2018-02-24T09:49:15.401Z,-0.60
2018-02-24T09:51:43.728Z,-1.20
2018-02-24T09:54:12.858Z,-0.80
2018-02-24T09:56:41.146Z,-0.80
2018-02-24T09:59:09.409Z,-0.90
2018-02-24T10:01:38.511Z,-1.10
2018-02-24T10:04:06.851Z,-1.10
2018-02-24T10:06:35.174Z,-0.90
2018-02-24T10:09:03.549Z,-0.50
2018-02-24T10:11:31.870Z,-0.20
2018-02-24T10:14:00.173Z,-0.60
2018-02-24T10:16:28.562Z,-0.80
2018-02-24T10:18:58.335Z,-0.60
2018-02-24T10:21:26.687Z,-1.40
2018-02-24T10:23:55.055Z,-1.00
2018-02-24T10:26:23.421Z,-0.30
2018-02-24T10:28:52.308Z,-1.10
2018-02-24T10:31:20.961Z,-0.50
2018-02-24T10:33:49.331Z,-0.30
2018-02-24T10:36:17.704Z,-0.20
2018-02-24T10:54:00.324Z,-0.30
2018-02-24T10:56:28.619Z,-0.40
2018-02-24T10:58:57.079Z,-0.50
2018-02-24T11:01:25.375Z,-0.40
2018-02-24T11:03:53.925Z,-0.40
2018-02-24T11:06:22.368Z,-0.30
2018-02-24T11:08:50.625Z,-0.10
2018-02-24T11:11:19.720Z,-0.50
2018-02-24T11:13:48.108Z,-0.50
2018-02-24T11:16:17.160Z,-0.90
2018-02-24T11:18:45.475Z,-0.90
2018-02-24T11:21:14.646Z,0.00
2018-02-24T11:23:43.107Z,0.00
2018-02-24T11:26:11.475Z,0.10
2018-02-24T11:28:39.746Z,0.10
2018-02-24T11:31:08.077Z,0.10
2018-02-24T11:33:36.522Z,-0.60
2018-02-24T11:36:05.076Z,0.30
2018-02-24T11:38:33.421Z,-0.30
2018-02-24T11:41:01.778Z,-0.20
2018-02-24T11:43:30.173Z,0.20
2018-02-24T11:45:58.496Z,0.10
2018-02-24T11:48:26.824Z,-0.50
2018-02-24T11:50:55.123Z,-0.50
2018-02-24T11:53:23.465Z,-0.20
2018-02-24T11:55:51.758Z,0.10
2018-02-24T11:58:20.140Z,-0.10
2018-02-24T12:00:49.420Z,0.20
2018-02-24T12:03:17.874Z,0.20
2018-02-24T12:05:46.263Z,0.20
2018-02-24T12:08:15.439Z,0.10
2018-02-24T12:10:43.857Z,0.10
2018-02-24T12:13:12.205Z,0.10
2018-02-24T12:15:40.647Z,-0.90
2018-02-24T12:18:09.569Z,0.20
2018-02-24T12:20:37.929Z,0.20
2018-02-24T12:23:06.298Z,0.10
2018-02-24T12:25:34.575Z,0.10
2018-02-24T12:28:02.899Z,0.30
2018-02-24T12:30:31.296Z,0.30
2018-02-24T12:32:59.618Z,0.00
2018-02-24T12:35:27.925Z,0.20
2018-02-24T12:37:56.224Z,0.20
2018-02-24T12:40:24.547Z,0.20
2018-02-24T12:42:52.804Z,0.30
2018-02-24T12:45:21.880Z,-0.20
2018-02-24T12:47:50.325Z,-0.20
2018-02-24T12:50:18.612Z,0.40
2018-02-24T12:52:46.930Z,0.40
2018-02-24T12:55:16.423Z,0.30
2018-02-24T12:57:45.502Z,0.40
2018-02-24T13:00:13.774Z,0.40
2018-02-24T13:02:42.081Z,0.10
2018-02-24T13:05:10.459Z,0.40
2018-02-24T13:07:38.732Z,0.30
2018-02-24T13:10:07.004Z,0.10
2018-02-24T13:12:35.469Z,0.40
2018-02-24T13:15:04.592Z,0.40
2018-02-24T13:17:32.919Z,0.40
2018-02-24T13:20:01.232Z,0.30
2018-02-24T13:22:30.255Z,0.40
2018-02-24T13:24:58.523Z,0.40
2018-02-24T13:27:26.823Z,0.40
2018-02-24T13:29:55.118Z,-0.10
2018-02-24T13:32:23.393Z,0.30
2018-02-24T13:34:51.742Z,0.30
2018-02-24T13:37:19.989Z,0.00
2018-02-24T13:39:48.293Z,0.40
2018-02-24T13:42:16.554Z,0.00
2018-02-24T13:44:44.840Z,1.00
2018-02-24T13:47:13.981Z,-0.10
2018-02-24T13:49:42.255Z,-0.10
2018-02-24T13:52:10.612Z,0.30
2018-02-24T13:54:39.016Z,0.40
2018-02-24T13:57:07.267Z,0.60
2018-02-24T13:59:35.544Z,0.50
2018-02-24T14:02:03.980Z,0.50
2018-02-24T14:04:32.299Z,0.30
2018-02-24T14:07:00.592Z,0.30
2018-02-24T14:09:28.989Z,0.40
2018-02-24T14:11:57.253Z,0.40
2018-02-24T14:14:25.553Z,0.50
2018-02-24T14:16:54.636Z,0.50
2018-02-24T14:19:23.779Z,0.50
2018-02-24T14:21:52.114Z,0.50
2018-02-24T14:24:20.509Z,0.40
2018-02-24T14:26:48.841Z,0.50
2018-02-24T14:29:17.231Z,0.60
2018-02-24T14:31:45.657Z,0.50
2018-02-24T14:34:13.969Z,0.50
2018-02-24T14:36:42.350Z,0.60
2018-02-24T14:39:10.875Z,0.70
2018-02-24T14:41:39.277Z,0.60
2018-02-24T14:44:07.723Z,0.60
2018-02-24T14:46:36.087Z,0.60
2018-02-24T14:49:04.413Z,0.20
2018-02-24T14:51:32.821Z,0.50
2018-02-24T14:54:01.380Z,0.40
2018-02-24T14:56:29.682Z,1.10
2018-02-24T14:58:58.885Z,1.80
2018-02-24T15:01:27.202Z,2.40
2018-02-24T15:03:56.292Z,2.40
2018-02-24T15:06:24.595Z,2.40
2018-02-24T15:08:52.982Z,2.70
2018-02-24T15:11:21.236Z,2.70
2018-02-24T15:13:49.511Z,3.10
2018-02-24T15:16:17.853Z,3.40
2018-02-24T15:18:46.156Z,3.60
2018-02-24T15:21:14.430Z,3.60
2018-02-24T15:23:42.709Z,3.90
2018-02-24T15:26:11.886Z,3.90
2018-02-24T15:28:40.131Z,3.90
2018-02-24T15:31:08.471Z,4.20
2018-02-24T15:33:36.741Z,4.00
2018-02-24T15:36:05.012Z,4.10
2018-02-24T15:38:33.309Z,4.30
2018-02-24T15:41:01.584Z,4.50
2018-02-24T15:43:30.589Z,4.50
2018-02-24T15:45:58.844Z,4.50
2018-02-24T15:48:27.120Z,4.50
2018-02-24T15:50:55.478Z,4.70
2018-02-24T15:53:23.732Z,4.80
2018-02-24T15:55:52.041Z,3.70
2018-02-24T15:58:20.436Z,3.00
2018-02-24T16:00:50.167Z,2.70
2018-02-24T16:03:18.491Z,2.60
2018-02-24T16:05:47.652Z,2.40
2018-02-24T16:08:15.893Z,2.40
2018-02-24T16:10:44.178Z,2.10
2018-02-24T16:13:13.332Z,2.00
2018-02-24T16:15:42.495Z,1.80
2018-02-24T16:18:11.631Z,1.90
2018-02-24T16:20:39.940Z,1.90
2018-02-24T16:23:08.211Z,1.70
2018-02-24T16:25:37.775Z,1.50
2018-02-24T16:28:06.943Z,1.70
2018-02-24T16:30:36.271Z,1.50
2018-02-24T16:33:04.903Z,1.50
2018-02-24T16:35:33.996Z,1.80
2018-02-24T16:38:02.317Z,1.80
2018-02-24T16:40:30.658Z,1.50
2018-02-24T16:42:58.949Z,1.20
2018-02-24T16:45:27.342Z,1.40
2018-02-24T16:47:55.653Z,1.70
2018-02-24T16:50:24.741Z,1.00
2018-02-24T16:52:53.824Z,0.90
2018-02-24T16:55:22.823Z,0.90
2018-02-24T16:57:51.625Z,0.80
2018-02-24T17:00:19.955Z,0.80
2018-02-24T17:02:48.232Z,0.70
2018-02-24T17:05:16.563Z,0.20
2018-02-24T17:07:45.042Z,0.10
2018-02-24T17:10:13.407Z,0.20
2018-02-24T17:12:42.368Z,-0.20
2018-02-24T17:15:10.733Z,0.00
2018-02-24T17:17:39.016Z,0.40
2018-02-24T17:20:07.284Z,0.30
2018-02-24T17:22:35.607Z,0.30
2018-02-24T17:25:03.885Z,0.10
2018-02-24T17:27:32.160Z,0.10
2018-02-24T17:30:01.237Z,0.10
2018-02-24T17:32:29.945Z,0.10
2018-02-24T17:34:58.181Z,0.30
2018-02-24T17:37:26.502Z,-0.10
2018-02-24T17:39:54.749Z,-0.20
2018-02-24T17:42:23.065Z,0.00
2018-02-24T17:44:51.334Z,0.00
2018-02-24T17:47:19.594Z,-0.20
2018-02-24T17:49:48.642Z,-0.20
2018-02-24T17:52:16.895Z,-0.20
2018-02-24T17:54:45.216Z,-0.70
2018-02-24T17:57:13.512Z,-0.30
2018-02-24T17:59:42.524Z,-0.30
2018-02-24T18:02:10.854Z,-0.30
2018-02-24T18:04:39.185Z,-0.10
2018-02-24T18:07:07.499Z,-0.30
2018-02-24T18:09:35.784Z,-0.50
2018-02-24T18:12:04.038Z,-0.30
2018-02-24T18:14:32.423Z,-0.60
2018-02-24T18:17:00.674Z,-0.90
2018-02-24T18:19:28.952Z,-0.60
2018-02-24T18:21:58.115Z,-0.90
2018-02-24T18:24:26.454Z,-1.10
2018-02-24T18:26:54.743Z,-1.30
2018-02-24T18:29:23.060Z,-1.50
2018-02-24T18:31:51.330Z,-1.40
2018-02-24T18:34:19.615Z,-1.40
2018-02-24T18:36:48.035Z,-1.40
2018-02-24T18:39:16.279Z,-1.30
2018-02-24T18:41:44.589Z,-1.00
2018-02-24T18:44:12.996Z,-1.80
2018-02-24T18:46:42.775Z,-1.10
2018-02-24T18:49:11.176Z,-1.10
2018-02-24T18:51:39.411Z,-1.00
2018-02-24T18:54:07.677Z,-1.60
2018-02-24T18:56:35.978Z,-1.40
2018-02-24T18:59:04.255Z,-1.10
2018-02-24T19:01:32.490Z,-1.10
2018-02-24T19:04:00.814Z,-1.10
2018-02-24T19:06:29.054Z,-0.80
2018-02-24T19:08:57.360Z,-0.80
2018-02-24T19:11:25.775Z,-1.40
2018-02-24T19:13:54.790Z,-1.20
2018-02-24T19:16:23.050Z,-1.20
2018-02-24T19:18:51.595Z,-1.20
2018-02-24T19:21:19.849Z,-1.30
2018-02-24T19:23:48.199Z,-1.20
2018-02-24T19:26:16.541Z,-1.30
2018-02-24T19:28:44.834Z,-1.30
2018-02-24T19:31:13.310Z,-1.80
2018-02-24T19:33:42.452Z,-1.30
2018-02-24T19:36:10.698Z,-1.30
2018-02-24T19:38:39.126Z,-1.30
2018-02-24T19:41:07.466Z,-1.30
2018-02-24T19:43:35.793Z,-1.20
2018-02-24T19:46:04.161Z,-1.30
2018-02-24T19:48:32.456Z,-1.40
2018-02-24T19:51:00.799Z,-1.20
2018-02-24T19:53:29.209Z,-1.40
2018-02-24T19:55:58.310Z,-1.20
2018-02-24T19:58:26.558Z,-1.20
2018-02-24T20:00:54.965Z,-1.50
2018-02-24T20:03:24.073Z,-0.90
2018-02-24T20:05:53.236Z,-1.30
2018-02-24T20:08:21.569Z,-1.40
2018-02-24T20:10:49.869Z,-1.50
2018-02-24T20:13:18.141Z,-1.40
2018-02-24T20:15:46.410Z,-1.50
2018-02-24T20:18:14.730Z,-1.60
2018-02-24T20:20:43.073Z,-1.60
2018-02-24T20:23:11.338Z,-1.60
2018-02-24T20:25:39.724Z,-1.50
2018-02-24T20:28:07.987Z,-1.80
2018-02-24T20:30:36.290Z,-1.50
2018-02-24T20:33:04.638Z,-1.70
2018-02-24T20:35:32.903Z,-1.50
2018-02-24T20:38:01.365Z,-1.50
2018-02-24T20:40:29.766Z,-1.60
2018-02-24T20:42:58.042Z,-1.60
2018-02-24T20:45:26.379Z,-1.80
2018-02-24T20:47:54.700Z,-1.90
2018-02-24T20:50:23.157Z,-2.00
2018-02-24T20:52:52.621Z,-2.00
2018-02-24T20:55:20.997Z,-1.90
2018-02-24T20:57:49.278Z,-1.90
2018-02-24T21:00:17.708Z,-1.70
2018-02-24T21:02:46.044Z,-1.90
2018-02-24T21:05:14.334Z,-2.00
2018-02-24T21:07:43.353Z,-1.90
2018-02-24T21:10:11.685Z,-1.90
2018-02-24T21:12:39.966Z,-1.80
2018-02-24T21:15:08.281Z,-1.80
2018-02-24T21:17:36.585Z,-1.80
2018-02-24T21:20:05.330Z,-2.00
2018-02-24T21:22:34.871Z,-1.80
2018-02-24T21:25:03.153Z,-1.90
2018-02-24T21:27:32.202Z,-1.90
2018-02-24T21:30:00.539Z,-1.90
2018-02-24T21:32:28.828Z,-1.60
2018-02-24T21:34:57.077Z,-1.90
2018-02-24T21:37:25.439Z,-1.90
2018-02-24T21:39:53.732Z,-1.70
2018-02-24T21:42:22.931Z,-2.00
2018-02-24T21:44:51.270Z,-2.00
2018-02-24T21:47:20.466Z,-1.90
2018-02-24T21:49:49.468Z,-2.00
2018-02-24T21:52:19.071Z,-2.00
2018-02-24T21:54:48.147Z,-2.10
2018-02-24T21:57:16.450Z,-2.20
2018-02-24T21:59:44.824Z,-2.10
2018-02-24T22:02:13.174Z,-2.30
2018-02-24T22:04:41.481Z,-3.20
2018-02-24T22:07:09.763Z,-3.30
2018-02-24T22:09:38.316Z,-3.30
2018-02-24T22:12:07.406Z,-3.50
2018-02-24T22:14:36.472Z,-3.80
2018-02-24T22:17:05.557Z,-3.80
2018-02-24T22:19:33.828Z,-3.80
2018-02-24T22:22:02.129Z,-3.80
2018-02-24T22:24:31.959Z,-3.70
2018-02-24T22:27:00.984Z,-4.20
2018-02-24T22:29:29.274Z,-4.20
2018-02-24T22:31:57.601Z,-4.60
2018-02-24T22:34:25.874Z,-4.40
2018-02-24T22:36:54.191Z,-4.90
2018-02-24T22:39:22.495Z,-5.00
2018-02-24T22:41:50.817Z,-5.20
2018-02-24T22:44:19.964Z,-4.50
2018-02-24T22:46:48.348Z,-4.50
2018-02-24T22:49:16.682Z,-4.60
2018-02-24T22:51:44.995Z,-4.40
2018-02-24T22:54:13.286Z,-4.50
2018-02-24T22:56:41.550Z,-4.60
2018-02-24T22:59:09.826Z,-4.70
2018-02-24T23:01:38.128Z,-4.70
2018-02-24T23:04:06.397Z,-4.30
2018-02-24T23:06:34.699Z,-4.90
2018-02-24T23:09:03.094Z,-5.10
2018-02-24T23:11:31.426Z,-4.90
2018-02-24T23:13:59.730Z,-5.10
2018-02-24T23:16:28.035Z,-4.60
2018-02-24T23:18:56.341Z,-4.50
2018-02-24T23:21:24.712Z,-4.50
2018-02-24T23:23:53.098Z,-3.80
2018-02-24T23:26:21.754Z,-4.30
2018-02-24T23:28:50.054Z,-3.70
2018-02-24T23:31:18.435Z,-3.40
2018-02-24T23:33:46.715Z,-3.20
2018-02-24T23:36:15.039Z,-3.20
2018-02-24T23:38:44.125Z,-3.40
2018-02-24T23:41:13.141Z,-3.60
2018-02-24T23:43:41.402Z,-3.60
2018-02-24T23:46:10.462Z,-3.40
2018-02-24T23:48:38.924Z,-3.40
2018-02-24T23:51:07.963Z,-2.90
2018-02-24T23:53:37.023Z,-3.20
2018-02-24T23:56:05.394Z,-3.20
2018-02-24T23:58:33.666Z,-3.20
